Jueves, 03 de Septiembre del 2015

portal contactenos mapa del sitio buscar Revisar Correo Corporativo

Reporte METAR Consolidado

|| Reporte TAF Consolidado ||

Informe METAR emitido cada hora.

METAR

ESTACIÓN

AEROPUERTO

HORA UTC

DESCRIPCIÓN

SLGM

Guayaramerín

10-49S|65-20W

16:00

SLGM 031600Z 36010KT 5000 FU FEW020 BKN200 31/24 Q1015 A2998 HR65=

SLRI

Riberalta

11-00S|66-04W

16:00

SLRI 031600Z 36010KT 5000 FU SCT020 FEW023CB BKN200 33/23 Q1014 A2995 HR58 CB N=

SLCO

Cobija

11-02S|68-47W

16:00

SLCO 031600Z 29005KT 8000 SCT027 34/24 Q1014 A2995 986.8 HR55 FU CI=

SLJO

San Joaquin

13-03S|64-39W

16:00

SLJO 031600Z 18005KT 8000 FEW017 34/23 Q1013 A2993 HR53 FU RWY NML=

SLRA

San Ramón

13-15S|64-36W

16:00

SLRA 031600Z 00000KT 8000 FEW017 33/23 Q1012 A2991 HR56 FU RWY NML=

SLMG

San Magdalena

13-15S|64-03W

16:00

SLMG 031600Z 27006KT 8000 FEW017 35/23 Q1013 A2992 HR49 FU RWY NML=

SLBU

Baures

13-39S|63-42W

16:00

SLBU 031600Z 18006KT 8000 SCT017 36/23 Q1013 A2992 HR46 FU RWY NML=

SLSA

Santa Ana de Yacuma

13-45S|65-26W

16:00

SLSA 031600Z 17006KT 8000 SCT020 34/22 Q1012 A2990 HR48 FU=

SLSR

Santa Rosa

14-04S|66-47W

16:00

SLSR 031600Z 00000KT 8000 FEW020 SCT020 34/23 Q1010 A2983 HR53 FU RWY NML=

SLRY

Reyes

14-18S|67-21W

16:00

SLRY 031600Z 00000KT 8000 NSC 34/22 Q1014 A2997 FU HR50 RWY OPR 1 100M=

SLRQ

Rurrenabaque

14-25S|67-29W

16:00

SLRQ 031600Z 00000KT 9999 FEW020 35/25 Q1013 A2992 HR57=

SLAP

Apolo

14-44S|68-24W

-

Mensaje no Recibido

SLTR

Trinidad

14-49S|64-54W

16:00

SLTR 031600Z 16004KT 120V200 7000 FEW025 SCT100 34/22 Q1013 A2993 995.0 HR50 FU NOSIG=

SLSB

San Borja

14-51S|66-44W

16:00

SLSB 031600Z 00000KT 7000 FEW020 34/25 Q1012 A2990 FU HR58 RWY NML=

SLSM

San Ignacio de Moxos

14-57S|65-38W

16:00

SLSM 031600Z 12004KT 8000 BKN080 33/24 Q1012 A2989 HR60 FU RWY NML=

SLAS

Ascención de Guarayos

15-55S|63-09W

16:00

SLAS 031600Z 17012KT 8000 NSC 31/21 Q1016 A3000 HR55 FU CI RWY NML=

SLCP

Concepción

16-08S|62-01W

16:00

SLCP 031600Z 18010KT 9999 NSC 30/21 Q1018 A3006 HR61 FU RWY NML =

SLLP

Internaciónal El Alto

16-08S|68-10W

16:00

SLLP 031600Z 12009KT 060V190 9999 SCT015 FEW017CB SCT200 12/01 Q1039 A3070 629.0 P0783 CB/N/NW HR46 TEMPO VCTS=

SLJV

San Javier

16-16S|62-28W

16:00

SLJV 031600Z 18010KT 8000 NSC 28/20 Q1015 A2997 HR62 FU RWY NML =

SLTI

San Matías

16-20S|58-24W

15:00

SLTI 031500Z 00000KT 9999 NSC 36/18 Q1019 A3009 HR35 RWY NML=

SLSI

San Ignacio de Velasco

16-23S|60-57W

16:00

SLSI 031600Z 19013KT 9999 NSC 33/21 Q1015 A2997 HR51 RWY NML=

SLCB

Cochabamba

17-25S|66-10W

16:00

SLCB 031600Z 26004KT 9999 FEW027 22/05 Q1027 A3034 753.3 HR33 FU AC NOSIG=

SLCN

Charaña

17-35S|69-25W

-

Mensaje no Recibido

SLVR

Internaciónal Viru Viru

17-38S|63-08W

16:00

SLVR 031600Z 18012G22KT 9000 NSC 29/14 Q1017 A3005 HR40 FU NOSIG=

SLET

El Trompillo

17-48S|63-10W

16:00

SLET 031600Z 17015G26KT 9000 NSC 28/14 Q1016 A3003 HR42 FU NOSIG=

SLJE

San José de Chiquitos

17-49S|60-44W

16:00

SLJE 031600Z 17014KT 9999 NSC 32/21 Q1018 A3006 HR52 FU RWY NML =

SLOR

Oruro

17-57S|67-04W

16:00

SLOR 031600Z 03005KT 9999 SCT017 FEW020CB 13/M01 Q1038 A3065 658.0 CB/SE AC/CI HR30=

SLRB

Roboré

18-19S|59-45W

16:00

SLRB 031600Z 00000KT 9999 NSC 28/22 Q1018 A3006 HR70 RWY NML=

SLVG

Valle Grande

18-28S|64-05W

15:00

SLVG 031500Z 34015KT 9999 SCT025 22/10 Q1028 A3036 HR44 FU RWY NML=

SLPS

Puerto Suárez

18-58S|57-49W

16:00

SLPS 031600Z 24006KT 6000 NSC 33/20 Q1013 A2992 HR47 FU=

SLSU

Sucre

19-00S|65-17W

16:00

SLSU 031600Z 04015KT 9999 SCT017 18/07 Q1032 A3048 HR50=

SLPO

Potosí

19-32S|65-43W

16:00

SLPO 031600Z NIL=

SLAG

Monteagudo

19-49S|63-58W

16:00

SLAG 031600Z WO ATTN=

SLCA

Camiri

20-00S|63-31W

16:00

SLCA 031600Z 15005KT 9999 OVC070 23/11 Q1022 A3018 HR49 FU RWY NML=

SLUY

Uyuni

20-27S|62-52W

-

SLUY QRX 032300Z=

SLVM

Villamontes

21-15S|63-24W

16:00

SLVM 031600Z 18015G25KT 9999 FEW023 OVC070 22/13 Q1020 A3013 HR56=

SLTJ

Tarija

21-33S|64-42W

16:00

COR SLTJ 031600Z 14004KT 9999 SCT010 BKN023 OVC070 16/11 Q1024 A3025 HR75 SH N/S/SW/NW=

SLYA

Yacuiba

21-57S|63-39W

16:00

SLYA 031600Z 18008KT 9999 OVC070 20/12 Q1022 A3019 HR56 FU=

SLBJ

Bermejo

22-46S|64-18W

16:00

SLBJ 031600Z NIL=